Time;durP1;ratioP1;P1;durP2;ratioP2;P2;SDS_P1;SDS_P2;PMS_P1;PMS_P2;Temp;Humidity;BMP_temperature;BMP_pressure;BME280_temperature;BME280_humidity;BME280_pressure;Samples;Min_cycle;Max_cycle;Signal;HPM_P1;HPM_P2
2023/11/26 00:00:18;;;;;;;2.15;1.55;;;;;;;;;;1031628;28;20509;-72
2023/11/26 00:00:48;;;;;;;0.75;0.75;;;;;;;;;;1031612;28;20025;-72
2023/11/26 00:01:19;;;;;;;5.18;3.53;;;;;;;;;;1031804;28;20022;-72
2023/11/26 00:01:51;;;;;;;5.97;1.83;;;;;;;;;;1031678;28;20486;-72
2023/11/26 00:02:22;;;;;;;18.13;3.47;;;;;;;;;;1031812;28;20490;-72
2023/11/26 00:02:52;;;;;;;3.75;3.45;;;;;;;;;;1031633;28;20026;-72
2023/11/26 00:03:22;;;;;;;1.85;1.75;;;;;;;;;;1031714;28;20065;-72
2023/11/26 00:03:53;;;;;;;2.95;2.67;;;;;;;;;;1030698;28;20026;-72
2023/11/26 00:04:23;;;;;;;2.88;1.65;;;;;;;;;;1031643;28;20034;-72
2023/11/26 00:04:54;;;;;;;5.05;2.42;;;;;;;;;;1030791;28;20026;-72
2023/11/26 00:05:24;;;;;;;12.05;2.25;;;;;;;;;;1031207;28;20023;-72
2023/11/26 00:05:55;;;;;;;1.70;1.58;;;;;;;;;;1031508;28;20478;-72
2023/11/26 00:06:25;;;;;;;2.17;2.05;;;;;;;;;;1031189;28;20536;-72
2023/11/26 00:06:55;;;;;;;2.15;1.95;;;;;;;;;;1031065;28;20502;-72
2023/11/26 00:07:26;;;;;;;2.17;1.77;;;;;;;;;;1031127;28;20367;-72
2023/11/26 00:07:56;;;;;;;3.42;3.13;;;;;;;;;;1031222;28;20022;-72
2023/11/26 00:08:27;;;;;;;2.67;2.47;;;;;;;;;;1031329;28;20469;-72
2023/11/26 00:08:57;;;;;;;2.17;1.75;;;;;;;;;;1031372;28;20033;-72
2023/11/26 00:09:28;;;;;;;2.60;2.38;;;;;;;;;;1027371;28;20033;-72
2023/11/26 00:09:58;;;;;;;1.85;1.75;;;;;;;;;;1031511;28;20014;-72
2023/11/26 00:10:29;;;;;;;0.40;0.40;;;;;;;;;;1031301;28;20469;-72
2023/11/26 00:10:59;;;;;;;2.08;1.92;;;;;;;;;;1031207;28;20454;-72
2023/11/26 00:11:30;;;;;;;6.95;2.67;;;;;;;;;;1031294;28;20048;-72
2023/11/26 00:12:00;;;;;;;2.70;1.05;;;;;;;;;;1031393;28;20037;-72
2023/11/26 00:12:31;;;;;;;2.70;2.50;;;;;;;;;;1027472;28;20023;-72
2023/11/26 00:13:01;;;;;;;2.15;2.03;;;;;;;;;;1031418;28;20113;-72
2023/11/26 00:13:32;;;;;;;2.85;2.65;;;;;;;;;;1031204;28;20026;-72
2023/11/26 00:14:03;;;;;;;1.60;1.50;;;;;;;;;;1031479;28;20580;-72
2023/11/26 00:14:36;;;;;;;2.33;2.15;;;;;;;;;;1031249;28;20022;-72
2023/11/26 00:15:08;;;;;;;11.38;2.38;;;;;;;;;;1031583;28;20022;-72
2023/11/26 00:15:39;;;;;;;2.75;2.15;;;;;;;;;;1031639;28;20022;-72
2023/11/26 00:16:09;;;;;;;1.30;1.20;;;;;;;;;;1031860;28;20410;-72
2023/11/26 00:16:40;;;;;;;1.45;1.30;;;;;;;;;;1030897;28;20418;-72
2023/11/26 00:17:10;;;;;;;3.58;3.25;;;;;;;;;;1031350;28;20022;-72
2023/11/26 00:17:40;;;;;;;2.45;2.22;;;;;;;;;;1031077;28;20030;-72
2023/11/26 00:18:11;;;;;;;6.43;2.85;;;;;;;;;;1031820;28;20022;-72
2023/11/26 00:18:41;;;;;;;2.22;2.08;;;;;;;;;;1031423;28;20461;-72
2023/11/26 00:19:12;;;;;;;1.77;1.67;;;;;;;;;;1031920;28;20105;-72
2023/11/26 00:19:42;;;;;;;6.57;2.33;;;;;;;;;;1031538;28;20034;-72
2023/11/26 00:20:13;;;;;;;12.20;3.85;;;;;;;;;;1031955;28;20500;-72
2023/11/26 00:20:43;;;;;;;1.05;0.95;;;;;;;;;;1031460;28;20137;-72
2023/11/26 00:21:14;;;;;;;6.15;1.00;;;;;;;;;;1031592;28;20053;-72
2023/11/26 00:21:44;;;;;;;2.75;2.40;;;;;;;;;;1031349;28;20042;-72
2023/11/26 00:22:15;;;;;;;0.68;0.68;;;;;;;;;;1030877;28;20036;-72
2023/11/26 00:22:47;;;;;;;2.05;1.50;;;;;;;;;;1031499;28;20022;-72
2023/11/26 00:23:17;;;;;;;3.10;2.70;;;;;;;;;;1031216;28;20022;-72
2023/11/26 00:23:48;;;;;;;2.00;1.85;;;;;;;;;;1031223;28;20022;-72
2023/11/26 00:24:18;;;;;;;0.80;0.77;;;;;;;;;;1031528;28;20034;-72
2023/11/26 00:24:48;;;;;;;1.25;1.20;;;;;;;;;;1031245;28;20034;-72
2023/11/26 00:25:19;;;;;;;2.42;1.40;;;;;;;;;;1031839;28;20018;-72
2023/11/26 00:25:49;;;;;;;1.67;1.58;;;;;;;;;;1031200;28;20026;-72
2023/11/26 00:26:20;;;;;;;3.47;3.15;;;;;;;;;;1031409;28;20602;-72
2023/11/26 00:26:50;;;;;;;6.75;2.15;;;;;;;;;;1031190;28;20474;-72
2023/11/26 00:27:22;;;;;;;1.95;1.00;;;;;;;;;;1031498;28;20010;-72
2023/11/26 00:27:52;;;;;;;4.80;4.10;;;;;;;;;;1031559;28;20030;-72
2023/11/26 00:28:22;;;;;;;1.35;1.25;;;;;;;;;;1031694;28;20025;-72
2023/11/26 00:28:53;;;;;;;0.60;0.60;;;;;;;;;;1031507;28;20026;-72
2023/11/26 00:29:23;;;;;;;4.57;2.10;;;;;;;;;;1030980;28;20465;-72
2023/11/26 00:29:55;;;;;;;5.30;1.50;;;;;;;;;;1031343;28;20058;-72
2023/11/26 00:30:25;;;;;;;3.10;1.05;;;;;;;;;;1030739;28;20022;-72
2023/11/26 00:30:55;;;;;;;0.90;0.90;;;;;;;;;;1031211;28;20545;-72
2023/11/26 00:31:26;;;;;;;1.55;1.45;;;;;;;;;;1031209;28;20022;-72
2023/11/26 00:31:57;;;;;;;2.80;0.98;;;;;;;;;;1031424;28;20026;-72
2023/11/26 00:32:27;;;;;;;1.35;1.20;;;;;;;;;;1031318;28;20120;-72
2023/11/26 00:32:57;;;;;;;1.88;1.75;;;;;;;;;;1031642;28;20019;-72
2023/11/26 00:33:28;;;;;;;1.20;1.13;;;;;;;;;;1031528;28;20026;-72
2023/11/26 00:33:59;;;;;;;3.30;2.00;;;;;;;;;;1031709;28;20033;-72
2023/11/26 00:34:29;;;;;;;3.40;1.35;;;;;;;;;;1031537;28;20026;-72
2023/11/26 00:35:00;;;;;;;1.80;1.55;;;;;;;;;;1031653;28;20394;-72
2023/11/26 00:35:30;;;;;;;2.60;2.42;;;;;;;;;;1031192;28;20117;-72
2023/11/26 00:36:01;;;;;;;4.28;2.97;;;;;;;;;;1031325;28;20108;-72
2023/11/26 00:36:31;;;;;;;4.93;2.25;;;;;;;;;;1031241;28;20080;-72
2023/11/26 00:37:02;;;;;;;1.05;1.05;;;;;;;;;;1030833;28;20034;-72
2023/11/26 00:37:33;;;;;;;1.08;1.08;;;;;;;;;;1031555;28;20204;-72
2023/11/26 00:38:03;;;;;;;2.28;2.17;;;;;;;;;;1031642;28;20026;-72
2023/11/26 00:38:33;;;;;;;3.65;1.38;;;;;;;;;;1031448;28;20507;-72
2023/11/26 00:39:04;;;;;;;7.63;2.28;;;;;;;;;;1031747;28;20383;-72
2023/11/26 00:39:34;;;;;;;3.40;1.50;;;;;;;;;;1031571;28;20486;-72
2023/11/26 00:40:05;;;;;;;3.85;2.28;;;;;;;;;;1031716;28;20018;-72
2023/11/26 00:40:36;;;;;;;0.80;0.80;;;;;;;;;;1031458;28;20060;-72
2023/11/26 00:41:06;;;;;;;0.82;0.65;;;;;;;;;;1031699;28;20029;-72
2023/11/26 00:41:37;;;;;;;4.07;2.70;;;;;;;;;;1031484;28;20026;-72
2023/11/26 00:42:07;;;;;;;2.63;2.22;;;;;;;;;;1031755;28;20029;-72
2023/11/26 00:42:38;;;;;;;3.40;1.45;;;;;;;;;;1031493;28;20105;-72
2023/11/26 00:43:09;;;;;;;1.88;1.45;;;;;;;;;;1031598;28;20121;-72
2023/11/26 00:43:40;;;;;;;2.70;2.50;;;;;;;;;;1031353;28;20053;-72
2023/11/26 00:44:11;;;;;;;1.40;1.15;;;;;;;;;;1031247;28;20382;-72
2023/11/26 00:44:41;;;;;;;1.00;1.00;;;;;;;;;;1031443;28;20108;-72
2023/11/26 00:45:11;;;;;;;5.55;1.80;;;;;;;;;;1031838;28;20030;-72
2023/11/26 00:45:42;;;;;;;1.45;1.35;;;;;;;;;;1031473;28;20026;-72
2023/11/26 00:46:12;;;;;;;7.10;0.80;;;;;;;;;;1031828;28;20034;-72
2023/11/26 00:46:43;;;;;;;0.63;0.50;;;;;;;;;;1031345;28;20060;-72
2023/11/26 00:47:13;;;;;;;3.30;3.00;;;;;;;;;;1031418;28;20026;-72
2023/11/26 00:47:44;;;;;;;6.78;3.10;;;;;;;;;;1031148;28;20026;-72
2023/11/26 00:48:14;;;;;;;4.45;1.95;;;;;;;;;;1031306;28;20049;-72
2023/11/26 00:48:45;;;;;;;1.50;1.35;;;;;;;;;;1031006;28;20061;-72
2023/11/26 00:49:15;;;;;;;3.83;1.77;;;;;;;;;;1031762;28;20061;-72
2023/11/26 00:49:45;;;;;;;2.25;2.15;;;;;;;;;;1031498;28;20541;-72
2023/11/26 00:50:17;;;;;;;4.68;1.45;;;;;;;;;;1031619;28;20049;-72
2023/11/26 00:50:47;;;;;;;3.83;1.83;;;;;;;;;;1030474;28;20081;-72
2023/11/26 00:51:21;;;;;;;2.58;2.40;;;;;;;;;;1031658;28;20529;-72
2023/11/26 00:51:52;;;;;;;2.70;2.50;;;;;;;;;;1031545;28;20073;-72
2023/11/26 00:52:22;;;;;;;6.95;3.00;;;;;;;;;;1031111;28;20104;-72
2023/11/26 00:52:53;;;;;;;5.60;1.77;;;;;;;;;;1031541;28;20076;-73
2023/11/26 00:53:23;;;;;;;4.18;2.85;;;;;;;;;;1031606;28;20030;-72
2023/11/26 00:53:54;;;;;;;2.40;2.17;;;;;;;;;;1031453;28;20072;-72
2023/11/26 00:54:24;;;;;;;3.38;1.50;;;;;;;;;;1031130;28;20026;-72
2023/11/26 00:54:55;;;;;;;4.93;2.90;;;;;;;;;;1031608;28;20065;-72
2023/11/26 00:55:25;;;;;;;1.15;1.10;;;;;;;;;;1030987;28;20057;-72
2023/11/26 00:55:56;;;;;;;1.95;1.83;;;;;;;;;;1031643;28;20466;-72
2023/11/26 00:56:26;;;;;;;2.35;1.65;;;;;;;;;;1031407;28;20382;-72
2023/11/26 00:56:57;;;;;;;2.00;1.58;;;;;;;;;;1031579;28;20026;-72
2023/11/26 00:57:27;;;;;;;0.38;0.38;;;;;;;;;;1031494;28;20030;-72
2023/11/26 00:57:58;;;;;;;8.98;1.33;;;;;;;;;;1031245;28;20029;-72
2023/11/26 00:58:29;;;;;;;1.15;1.13;;;;;;;;;;1031130;28;20034;-72
2023/11/26 00:58:59;;;;;;;1.60;1.27;;;;;;;;;;1031003;28;21229;-72
2023/11/26 00:59:30;;;;;;;0.98;0.98;;;;;;;;;;1030936;28;20041;-72
2023/11/26 01:00:00;;;;;;;3.95;2.38;;;;;;;;;;1031579;28;20061;-72
2023/11/26 01:00:30;;;;;;;1.20;1.08;;;;;;;;;;1031234;28;20118;-72
2023/11/26 01:01:01;;;;;;;0.47;0.47;;;;;;;;;;1031532;28;20120;-72
2023/11/26 01:01:32;;;;;;;1.40;1.02;;;;;;;;;;1031115;28;20117;-72
2023/11/26 01:02:07;;;;;;;1.08;0.85;;;;;;;;;;1031279;28;20113;-72
2023/11/26 01:02:38;;;;;;;4.65;3.25;;;;;;;;;;1031081;28;20041;-72
2023/11/26 01:03:08;;;;;;;0.77;0.73;;;;;;;;;;1031335;28;20026;-72
2023/11/26 01:03:39;;;;;;;1.08;1.05;;;;;;;;;;1031354;28;20105;-72
2023/11/26 01:04:09;;;;;;;3.13;1.85;;;;;;;;;;1030238;28;20034;-72
2023/11/26 01:04:40;;;;;;;10.88;3.22;;;;;;;;;;1030188;28;20533;-72
2023/11/26 01:05:10;;;;;;;1.67;1.58;;;;;;;;;;1030976;28;20442;-72
2023/11/26 01:05:41;;;;;;;9.77;2.22;;;;;;;;;;1030493;28;20045;-72
2023/11/26 01:06:11;;;;;;;1.83;1.67;;;;;;;;;;1031270;28;20026;-72
2023/11/26 01:06:41;;;;;;;1.52;1.45;;;;;;;;;;1030988;28;20018;-72
2023/11/26 01:07:12;;;;;;;4.88;1.90;;;;;;;;;;1030944;28;20522;-72
2023/11/26 01:07:42;;;;;;;5.05;1.15;;;;;;;;;;1030133;28;20030;-72
2023/11/26 01:08:14;;;;;;;2.67;2.47;;;;;;;;;;1031737;28;20030;-72
2023/11/26 01:08:44;;;;;;;4.22;2.20;;;;;;;;;;1030962;28;20034;-72
2023/11/26 01:09:15;;;;;;;9.05;1.92;;;;;;;;;;1031528;28;20030;-72
2023/11/26 01:09:45;;;;;;;1.98;1.88;;;;;;;;;;1031505;28;20072;-72
2023/11/26 01:10:16;;;;;;;1.35;1.25;;;;;;;;;;1031698;28;20022;-72
2023/11/26 01:10:46;;;;;;;0.65;0.65;;;;;;;;;;1031424;28;20031;-72
2023/11/26 01:11:16;;;;;;;2.10;1.77;;;;;;;;;;1030575;28;20022;-72
2023/11/26 01:11:47;;;;;;;6.82;2.53;;;;;;;;;;1030335;28;20545;-72
2023/11/26 01:12:17;;;;;;;0.20;0.20;;;;;;;;;;1031636;28;20101;-72
2023/11/26 01:12:48;;;;;;;6.25;2.60;;;;;;;;;;1031321;28;20112;-72
2023/11/26 01:13:18;;;;;;;0.35;0.35;;;;;;;;;;1031594;28;20056;-72
2023/11/26 01:13:49;;;;;;;2.97;0.70;;;;;;;;;;1031375;28;20030;-72
2023/11/26 01:14:19;;;;;;;2.17;1.50;;;;;;;;;;1031652;28;20024;-72
2023/11/26 01:14:50;;;;;;;1.02;1.00;;;;;;;;;;1030970;28;20045;-72
2023/11/26 01:15:20;;;;;;;1.80;1.10;;;;;;;;;;1027272;28;20118;-72
2023/11/26 01:15:51;;;;;;;10.57;5.93;;;;;;;;;;1023095;29;20015;-72
2023/11/26 01:16:21;;;;;;;2.55;1.30;;;;;;;;;;1019225;29;20019;-72
2023/11/26 01:16:52;;;;;;;9.85;4.60;;;;;;;;;;1023218;28;20015;-72
2023/11/26 01:17:22;;;;;;;1.83;1.63;;;;;;;;;;1027252;28;20030;-72
2023/11/26 01:17:53;;;;;;;12.35;2.50;;;;;;;;;;1031064;28;20018;-72
2023/11/26 01:18:23;;;;;;;4.75;2.47;;;;;;;;;;1031497;28;20026;-72
2023/11/26 01:18:54;;;;;;;2.90;1.70;;;;;;;;;;1031364;28;20042;-72
2023/11/26 01:19:24;;;;;;;8.98;2.83;;;;;;;;;;1031575;28;20113;-72
2023/11/26 01:19:54;;;;;;;5.55;3.22;;;;;;;;;;1031450;28;20020;-72
2023/11/26 01:20:25;;;;;;;1.50;1.30;;;;;;;;;;1031098;28;20026;-72
2023/11/26 01:20:55;;;;;;;5.45;2.80;;;;;;;;;;1031005;28;20026;-72
2023/11/26 01:21:26;;;;;;;5.28;3.03;;;;;;;;;;1031419;28;20018;-72
2023/11/26 01:21:56;;;;;;;2.78;2.00;;;;;;;;;;1031395;28;20022;-72
2023/11/26 01:22:27;;;;;;;6.43;3.67;;;;;;;;;;1031157;28;20026;-72
2023/11/26 01:22:57;;;;;;;9.23;5.25;;;;;;;;;;1031217;28;20065;-72
2023/11/26 01:23:28;;;;;;;8.23;4.25;;;;;;;;;;1031388;28;20045;-72
2023/11/26 01:23:58;;;;;;;15.52;5.25;;;;;;;;;;1031564;28;20080;-72
2023/11/26 01:24:29;;;;;;;7.22;4.45;;;;;;;;;;1031414;28;20364;-72
2023/11/26 01:25:00;;;;;;;6.45;3.17;;;;;;;;;;1031544;28;20038;-72
2023/11/26 01:25:30;;;;;;;9.80;4.50;;;;;;;;;;1031462;28;20484;-72
2023/11/26 01:26:00;;;;;;;23.33;6.95;;;;;;;;;;1031544;28;20026;-72
2023/11/26 01:26:31;;;;;;;3.10;2.67;;;;;;;;;;1031314;28;20026;-72
2023/11/26 01:27:04;;;;;;;4.35;3.95;;;;;;;;;;1031542;28;20014;-72
2023/11/26 01:27:34;;;;;;;2.78;2.58;;;;;;;;;;1031431;28;20053;-72
2023/11/26 01:28:04;;;;;;;2.42;2.22;;;;;;;;;;1031501;28;20045;-72
2023/11/26 01:28:35;;;;;;;6.65;3.50;;;;;;;;;;1031202;28;20023;-72
2023/11/26 01:29:05;;;;;;;16.17;6.45;;;;;;;;;;1030868;28;20090;-72
2023/11/26 01:29:36;;;;;;;11.95;5.28;;;;;;;;;;1031070;28;20030;-72
2023/11/26 01:30:07;;;;;;;3.28;2.72;;;;;;;;;;1031344;28;20018;-72
2023/11/26 01:30:37;;;;;;;4.20;3.80;;;;;;;;;;1030975;28;20035;-72
2023/11/26 01:31:11;;;;;;;6.60;4.70;;;;;;;;;;1031539;28;20423;-72
2023/11/26 01:31:41;;;;;;;5.30;1.92;;;;;;;;;;1030939;28;20023;-72
2023/11/26 01:32:12;;;;;;;4.70;3.35;;;;;;;;;;1031662;28;20018;-72
2023/11/26 01:32:43;;;;;;;4.80;3.17;;;;;;;;;;1030749;28;20489;-72
2023/11/26 01:33:14;;;;;;;15.65;7.30;;;;;;;;;;1031316;28;20027;-72
2023/11/26 01:33:45;;;;;;;9.88;5.30;;;;;;;;;;1026869;28;20030;-72
2023/11/26 01:34:15;;;;;;;5.38;4.88;;;;;;;;;;1027487;28;20502;-72
2023/11/26 01:34:46;;;;;;;7.18;3.78;;;;;;;;;;1026873;28;20475;-72
2023/11/26 01:35:16;;;;;;;3.53;2.33;;;;;;;;;;1027379;28;20062;-72
2023/11/26 01:35:47;;;;;;;7.90;4.85;;;;;;;;;;1031103;28;20021;-72
2023/11/26 01:36:17;;;;;;;3.92;2.90;;;;;;;;;;1031240;28;20372;-72
2023/11/26 01:36:48;;;;;;;7.95;3.58;;;;;;;;;;1031248;28;20014;-72
2023/11/26 01:37:19;;;;;;;7.90;3.88;;;;;;;;;;1030679;28;20026;-72
2023/11/26 01:37:50;;;;;;;3.28;2.85;;;;;;;;;;1030971;28;20058;-72
2023/11/26 01:38:20;;;;;;;5.13;4.68;;;;;;;;;;1031320;28;20487;-72
2023/11/26 01:38:51;;;;;;;3.88;2.55;;;;;;;;;;1027068;28;20109;-72
2023/11/26 01:39:22;;;;;;;4.35;3.78;;;;;;;;;;1031235;28;20109;-72
2023/11/26 01:39:52;;;;;;;3.90;3.20;;;;;;;;;;1031115;28;20057;-72
2023/11/26 01:40:23;;;;;;;3.72;2.42;;;;;;;;;;1031209;28;20137;-72
2023/11/26 01:40:53;;;;;;;6.25;3.42;;;;;;;;;;1031402;28;20489;-72
2023/11/26 01:41:23;;;;;;;3.47;2.25;;;;;;;;;;1031383;28;20022;-72
2023/11/26 01:41:54;;;;;;;9.25;4.47;;;;;;;;;;1031474;28;20022;-72
2023/11/26 01:42:25;;;;;;;18.33;4.60;;;;;;;;;;1031504;28;20019;-72
2023/11/26 01:42:55;;;;;;;2.88;2.50;;;;;;;;;;1031228;28;20034;-72
2023/11/26 01:43:26;;;;;;;20.33;4.57;;;;;;;;;;1031397;28;20010;-72
2023/11/26 01:43:56;;;;;;;2.85;2.35;;;;;;;;;;1031464;28;20113;-72
2023/11/26 01:44:27;;;;;;;8.10;5.47;;;;;;;;;;1031448;28;20027;-72
2023/11/26 01:44:57;;;;;;;9.35;3.53;;;;;;;;;;1030975;28;20585;-72
2023/11/26 01:45:29;;;;;;;4.13;3.60;;;;;;;;;;1031098;28;20057;-72
2023/11/26 01:46:07;;;;;;;5.40;3.05;;;;;;;;;;1031030;28;20360;-72
2023/11/26 01:46:37;;;;;;;10.20;3.17;;;;;;;;;;1030614;28;20018;-72
2023/11/26 01:47:08;;;;;;;6.40;4.18;;;;;;;;;;1031286;28;20026;-72
2023/11/26 01:47:40;;;;;;;8.50;3.75;;;;;;;;;;1030925;28;20027;-72
2023/11/26 01:48:10;;;;;;;4.43;2.28;;;;;;;;;;1031236;28;20018;-72
2023/11/26 01:48:41;;;;;;;14.25;5.25;;;;;;;;;;1031143;28;20490;-72
2023/11/26 01:49:12;;;;;;;12.50;5.00;;;;;;;;;;1031527;28;20382;-73
2023/11/26 01:49:42;;;;;;;27.80;10.32;;;;;;;;;;1030816;28;20117;-73
2023/11/26 01:50:19;;;;;;;32.38;14.95;;;;;;;;;;1031322;28;20026;-72
2023/11/26 01:50:49;;;;;;;10.48;6.88;;;;;;;;;;1031079;28;20515;-72
2023/11/26 01:51:20;;;;;;;19.13;7.50;;;;;;;;;;1031287;28;20014;-72
2023/11/26 01:51:50;;;;;;;9.57;5.22;;;;;;;;;;1031403;28;20014;-72
2023/11/26 01:52:21;;;;;;;2.50;2.00;;;;;;;;;;1031080;28;20026;-72
2023/11/26 01:52:53;;;;;;;5.95;4.97;;;;;;;;;;1031225;28;20027;-72
2023/11/26 01:53:24;;;;;;;7.93;3.97;;;;;;;;;;1031502;28;20092;-72
2023/11/26 01:53:55;;;;;;;8.00;3.72;;;;;;;;;;1031384;28;20513;-72
2023/11/26 01:54:27;;;;;;;4.60;3.45;;;;;;;;;;1031610;28;20130;-72
2023/11/26 01:54:58;;;;;;;4.10;2.33;;;;;;;;;;1031293;28;20026;-72
2023/11/26 01:55:29;;;;;;;3.45;2.88;;;;;;;;;;1031376;28;20026;-72
2023/11/26 01:56:01;;;;;;;25.38;10.23;;;;;;;;;;1031426;28;20014;-72
2023/11/26 01:56:32;;;;;;;26.48;7.65;;;;;;;;;;1030231;28;20021;-72
2023/11/26 01:57:04;;;;;;;11.82;5.20;;;;;;;;;;1031470;28;20033;-72
2023/11/26 01:57:34;;;;;;;5.25;3.58;;;;;;;;;;1031277;28;20038;-72
2023/11/26 01:58:05;;;;;;;7.78;3.83;;;;;;;;;;1031095;28;20022;-72
2023/11/26 01:58:36;;;;;;;6.05;2.60;;;;;;;;;;1030845;28;20030;-72
2023/11/26 01:59:06;;;;;;;5.03;2.25;;;;;;;;;;1031262;28;20093;-72
2023/11/26 01:59:37;;;;;;;2.72;2.03;;;;;;;;;;1027017;28;20034;-72
2023/11/26 02:00:08;;;;;;;2.60;2.38;;;;;;;;;;1031269;28;20038;-72
2023/11/26 02:00:39;;;;;;;5.22;3.08;;;;;;;;;;1030933;28;20014;-72
2023/11/26 02:01:10;;;;;;;2.80;1.73;;;;;;;;;;1027360;28;20030;-72
2023/11/26 02:01:41;;;;;;;2.20;2.05;;;;;;;;;;1031038;28;20109;-72
2023/11/26 02:02:11;;;;;;;3.42;2.55;;;;;;;;;;1027200;28;20483;-72
2023/11/26 02:02:42;;;;;;;2.50;1.83;;;;;;;;;;1026907;28;20471;-72
2023/11/26 02:03:12;;;;;;;2.38;1.65;;;;;;;;;;1031229;28;20117;-72
2023/11/26 02:03:43;;;;;;;3.70;1.50;;;;;;;;;;1030947;28;20557;-72
2023/11/26 02:04:13;;;;;;;2.63;2.10;;;;;;;;;;1030646;28;20031;-72
2023/11/26 02:04:44;;;;;;;5.47;2.17;;;;;;;;;;1030444;28;20525;-72
2023/11/26 02:05:14;;;;;;;4.82;3.28;;;;;;;;;;1030782;28;20019;-72
2023/11/26 02:05:46;;;;;;;4.10;3.65;;;;;;;;;;1031230;28;20402;-72
2023/11/26 02:06:17;;;;;;;7.55;4.20;;;;;;;;;;1032344;28;20122;-72
2023/11/26 02:06:51;;;;;;;2.42;2.22;;;;;;;;;;1031040;28;20034;-72
2023/11/26 02:07:21;;;;;;;3.35;3.05;;;;;;;;;;1031536;28;20030;-72
2023/11/26 02:07:52;;;;;;;2.08;1.90;;;;;;;;;;1031707;28;20397;-72
2023/11/26 02:08:23;;;;;;;2.13;1.75;;;;;;;;;;1032274;28;20470;-72
2023/11/26 02:08:54;;;;;;;4.57;1.52;;;;;;;;;;1032126;28;20437;-72
2023/11/26 02:09:24;;;;;;;0.50;0.38;;;;;;;;;;1032265;28;20109;-72
2023/11/26 02:09:56;;;;;;;2.92;0.85;;;;;;;;;;1031656;28;20499;-72
2023/11/26 02:10:26;;;;;;;2.33;2.22;;;;;;;;;;1031819;28;20026;-72
2023/11/26 02:10:57;;;;;;;3.10;1.63;;;;;;;;;;1032162;28;20022;-72
2023/11/26 02:11:27;;;;;;;1.20;1.17;;;;;;;;;;1032138;28;20022;-72
2023/11/26 02:11:58;;;;;;;3.85;2.55;;;;;;;;;;1032267;28;20018;-72
2023/11/26 02:12:28;;;;;;;5.72;3.05;;;;;;;;;;1032144;28;20079;-72
2023/11/26 02:13:05;;;;;;;32.80;4.05;;;;;;;;;;1031718;28;20022;-72
2023/11/26 02:13:48;;;;;;;7.43;4.00;;;;;;;;;;1031068;28;20034;-72
2023/11/26 02:14:19;;;;;;;1.27;1.15;;;;;;;;;;1031148;28;20054;-72
2023/11/26 02:14:49;;;;;;;2.67;2.35;;;;;;;;;;1031927;28;20026;-72
2023/11/26 02:15:20;;;;;;;3.53;2.30;;;;;;;;;;1032315;28;20094;-72
2023/11/26 02:15:50;;;;;;;3.63;2.63;;;;;;;;;;1031716;28;20026;-72
2023/11/26 02:16:21;;;;;;;4.10;3.10;;;;;;;;;;1031905;28;20556;-72
2023/11/26 02:16:51;;;;;;;3.10;2.42;;;;;;;;;;1031783;28;20030;-72
2023/11/26 02:17:22;;;;;;;2.08;1.92;;;;;;;;;;1031827;28;20031;-72
2023/11/26 02:17:52;;;;;;;2.40;2.22;;;;;;;;;;1031651;28;20022;-72
2023/11/26 02:18:25;;;;;;;1.55;1.45;;;;;;;;;;1031875;28;20513;-72
2023/11/26 02:18:55;;;;;;;7.25;3.40;;;;;;;;;;1028010;28;20518;-72
2023/11/26 02:19:32;;;;;;;2.63;1.73;;;;;;;;;;1027995;28;20019;-72
2023/11/26 02:20:04;;;;;;;1.15;1.08;;;;;;;;;;1027831;28;20483;-72
2023/11/26 02:20:34;;;;;;;4.88;1.83;;;;;;;;;;1028618;28;20039;-72
2023/11/26 02:21:05;;;;;;;4.07;2.05;;;;;;;;;;1030948;28;20053;-72
2023/11/26 02:21:35;;;;;;;4.75;2.65;;;;;;;;;;1033615;28;20367;-72
2023/11/26 02:22:08;;;;;;;2.50;1.85;;;;;;;;;;1031400;28;20023;-72
2023/11/26 02:22:39;;;;;;;2.00;1.88;;;;;;;;;;1030970;28;20401;-72
2023/11/26 02:23:09;;;;;;;1.85;1.63;;;;;;;;;;1031878;28;20033;-72
2023/11/26 02:23:40;;;;;;;2.22;1.08;;;;;;;;;;1030851;28;20033;-72
2023/11/26 02:24:14;;;;;;;2.45;2.33;;;;;;;;;;1031873;28;20022;-72
2023/11/26 02:24:46;;;;;;;2.97;2.55;;;;;;;;;;1031588;28;20022;-72
2023/11/26 02:25:16;;;;;;;10.88;4.18;;;;;;;;;;1031228;28;20026;-72
2023/11/26 02:25:47;;;;;;;13.65;4.82;;;;;;;;;;1031036;28;20475;-72
2023/11/26 02:26:17;;;;;;;2.47;2.28;;;;;;;;;;1031024;28;20371;-72
2023/11/26 02:26:47;;;;;;;3.97;3.33;;;;;;;;;;1031980;28;20054;-72
2023/11/26 02:27:18;;;;;;;2.10;1.88;;;;;;;;;;1032388;28;20101;-72
2023/11/26 02:27:50;;;;;;;7.43;4.15;;;;;;;;;;1031907;28;20087;-72
2023/11/26 02:28:21;;;;;;;5.07;2.42;;;;;;;;;;1032249;28;20072;-72
2023/11/26 02:28:51;;;;;;;5.13;3.65;;;;;;;;;;1031595;28;20109;-72
2023/11/26 02:29:22;;;;;;;4.68;2.80;;;;;;;;;;1031547;28;20030;-72
2023/11/26 02:29:53;;;;;;;2.70;2.47;;;;;;;;;;1031761;28;20030;-72
2023/11/26 02:30:24;;;;;;;6.18;3.17;;;;;;;;;;1027876;28;20093;-72
2023/11/26 02:30:55;;;;;;;2.47;2.03;;;;;;;;;;1027621;28;20027;-72
2023/11/26 02:31:25;;;;;;;4.35;2.88;;;;;;;;;;1027599;28;20045;-72
2023/11/26 02:31:55;;;;;;;1.27;0.95;;;;;;;;;;1027861;28;20063;-72
2023/11/26 02:32:26;;;;;;;3.17;2.65;;;;;;;;;;1027753;28;20023;-72
2023/11/26 02:32:57;;;;;;;1.00;0.60;;;;;;;;;;1031676;28;20030;-72
2023/11/26 02:33:28;;;;;;;1.85;1.63;;;;;;;;;;1031594;28;20105;-72
2023/11/26 02:33:58;;;;;;;1.73;1.63;;;;;;;;;;1031895;28;20022;-72
2023/11/26 02:34:29;;;;;;;4.28;2.17;;;;;;;;;;1031738;28;20022;-72
2023/11/26 02:34:59;;;;;;;2.47;2.28;;;;;;;;;;1031576;28;20168;-72
2023/11/26 02:35:29;;;;;;;1.70;1.60;;;;;;;;;;1031633;28;20031;-72
2023/11/26 02:36:00;;;;;;;3.42;2.78;;;;;;;;;;1027674;28;20031;-72
2023/11/26 02:36:30;;;;;;;1.73;1.00;;;;;;;;;;1027685;28;20133;-72
2023/11/26 02:37:01;;;;;;;1.30;1.30;;;;;;;;;;1028096;28;20113;-72
2023/11/26 02:37:32;;;;;;;16.90;2.38;;;;;;;;;;1031689;28;20041;-72
2023/11/26 02:38:03;;;;;;;3.55;3.25;;;;;;;;;;1030548;28;20018;-72
2023/11/26 02:38:33;;;;;;;1.85;1.58;;;;;;;;;;1031593;28;20037;-72
2023/11/26 02:39:04;;;;;;;3.33;1.85;;;;;;;;;;1031916;28;20022;-72
2023/11/26 02:39:35;;;;;;;2.17;2.00;;;;;;;;;;1031673;28;20034;-72
2023/11/26 02:40:06;;;;;;;0.85;0.85;;;;;;;;;;1031837;28;20081;-72
2023/11/26 02:40:36;;;;;;;5.28;1.00;;;;;;;;;;1031594;28;20030;-72
2023/11/26 02:41:09;;;;;;;1.63;1.48;;;;;;;;;;1031864;28;20161;-72
2023/11/26 02:41:41;;;;;;;1.55;1.42;;;;;;;;;;1031640;28;20018;-72
2023/11/26 02:42:12;;;;;;;4.22;3.90;;;;;;;;;;1031871;28;20026;-72
2023/11/26 02:42:43;;;;;;;10.95;2.90;;;;;;;;;;1031363;28;20022;-72
2023/11/26 02:43:15;;;;;;;1.50;1.40;;;;;;;;;;1031888;28;20030;-72
2023/11/26 02:43:45;;;;;;;4.38;2.80;;;;;;;;;;1031344;28;20440;-72
2023/11/26 02:44:16;;;;;;;4.00;1.55;;;;;;;;;;1031838;28;20017;-72
2023/11/26 02:44:46;;;;;;;1.42;1.33;;;;;;;;;;1031623;28;20023;-72
2023/11/26 02:45:16;;;;;;;29.45;2.45;;;;;;;;;;1030856;28;20049;-72
2023/11/26 02:45:50;;;;;;;3.72;2.67;;;;;;;;;;1031978;28;20160;-72
2023/11/26 02:46:21;;;;;;;1.70;1.35;;;;;;;;;;1031665;28;20046;-72
2023/11/26 02:46:52;;;;;;;1.73;1.63;;;;;;;;;;1031654;28;20604;-72
2023/11/26 02:47:22;;;;;;;5.57;1.25;;;;;;;;;;1031836;28;20021;-72
2023/11/26 02:47:52;;;;;;;4.32;2.67;;;;;;;;;;1031606;28;20081;-72
2023/11/26 02:48:24;;;;;;;4.60;2.55;;;;;;;;;;1031606;28;20076;-72
2023/11/26 02:48:54;;;;;;;8.15;4.20;;;;;;;;;;1027500;28;20030;-72
2023/11/26 02:49:24;;;;;;;2.25;1.73;;;;;;;;;;1029805;28;20072;-72
2023/11/26 02:49:55;;;;;;;5.72;2.58;;;;;;;;;;1029891;28;20102;-72
2023/11/26 02:50:25;;;;;;;2.50;2.30;;;;;;;;;;1031573;28;20091;-72
2023/11/26 02:50:56;;;;;;;1.63;1.50;;;;;;;;;;1031729;28;20360;-72
2023/11/26 02:51:26;;;;;;;5.18;2.78;;;;;;;;;;1031650;28;20386;-72
2023/11/26 02:51:57;;;;;;;1.65;1.55;;;;;;;;;;1031628;28;20011;-72
2023/11/26 02:52:28;;;;;;;1.30;1.20;;;;;;;;;;1031600;28;20030;-72
2023/11/26 02:52:58;;;;;;;2.72;1.25;;;;;;;;;;1031930;28;20423;-72
2023/11/26 02:53:28;;;;;;;1.75;1.65;;;;;;;;;;1031919;28;20022;-72
2023/11/26 02:53:59;;;;;;;13.68;4.03;;;;;;;;;;1032071;28;20018;-72
2023/11/26 02:54:29;;;;;;;17.23;4.50;;;;;;;;;;1031898;28;20034;-72
2023/11/26 02:55:00;;;;;;;3.15;1.83;;;;;;;;;;1032028;28;20022;-72
2023/11/26 02:55:30;;;;;;;6.15;3.45;;;;;;;;;;1031991;28;20037;-72
2023/11/26 02:56:01;;;;;;;5.40;2.17;;;;;;;;;;1031627;28;20022;-72
2023/11/26 02:56:31;;;;;;;3.10;2.65;;;;;;;;;;1031472;28;20489;-72
2023/11/26 02:57:02;;;;;;;2.72;1.85;;;;;;;;;;1031775;28;20023;-72
2023/11/26 02:57:32;;;;;;;6.70;2.35;;;;;;;;;;1031533;28;20034;-72
2023/11/26 02:58:03;;;;;;;3.53;3.17;;;;;;;;;;1031999;28;20322;-72
2023/11/26 02:58:33;;;;;;;8.23;3.45;;;;;;;;;;1031761;28;20050;-72
2023/11/26 02:59:04;;;;;;;7.35;5.38;;;;;;;;;;1031738;28;20053;-72
2023/11/26 02:59:34;;;;;;;3.70;3.20;;;;;;;;;;1031652;28;20422;-72
2023/11/26 03:00:15;;;;;;;7.38;3.15;;;;;;;;;;1031873;28;20019;-72
2023/11/26 03:00:47;;;;;;;13.18;2.08;;;;;;;;;;1031605;28;20111;-72
2023/11/26 03:01:18;;;;;;;6.40;2.90;;;;;;;;;;1032085;28;20049;-72
2023/11/26 03:01:48;;;;;;;4.57;3.20;;;;;;;;;;1031955;28;20022;-72
2023/11/26 03:02:19;;;;;;;9.60;3.15;;;;;;;;;;1032151;28;20438;-72
2023/11/26 03:02:49;;;;;;;3.25;2.97;;;;;;;;;;1031698;28;20494;-72
2023/11/26 03:03:20;;;;;;;2.35;2.15;;;;;;;;;;1032054;28;20474;-72
2023/11/26 03:03:50;;;;;;;6.60;3.03;;;;;;;;;;1031111;28;20029;-72
2023/11/26 03:04:23;;;;;;;7.60;3.55;;;;;;;;;;1031359;28;20058;-72